createdAt,value
2023-06-18T15:49:24.750Z,94773.03
2023-06-18T15:51:54.577Z,94779.56
2023-06-18T15:54:21.265Z,94737.41
2023-06-18T15:56:47.846Z,94720.56
2023-06-18T15:59:14.417Z,94753.56
2023-06-18T16:01:41.479Z,94736.78
2023-06-18T16:04:18.372Z,94779.63
2023-06-18T16:06:45.279Z,94763.59
2023-06-18T16:09:12.458Z,94777.47
2023-06-18T16:11:39.742Z,94780.78
2023-06-18T16:14:06.330Z,94773.84
2023-06-18T16:16:39.550Z,94774.16
2023-06-18T16:19:08.098Z,94764.28
2023-06-18T16:21:36.572Z,94746.41
2023-06-18T16:24:03.291Z,94749.31
2023-06-18T16:26:30.294Z,94740.91
2023-06-18T16:29:04.680Z,94774.75
2023-06-18T16:31:31.641Z,94727.00
2023-06-18T16:33:58.282Z,94732.53
2023-06-18T16:36:28.603Z,94760.28
2023-06-18T16:38:55.961Z,94726.66
2023-06-18T16:41:31.799Z,94755.44
2023-06-18T16:43:58.624Z,94741.84
2023-06-18T16:46:25.403Z,94763.44
2023-06-18T16:48:53.162Z,94741.47
2023-06-18T16:51:22.455Z,94751.34
2023-06-18T16:53:52.215Z,94759.31
2023-06-18T16:56:18.774Z,94766.59
2023-06-18T16:58:46.212Z,94723.97
2023-06-18T17:01:12.848Z,94742.50
2023-06-18T17:03:39.434Z,94759.59
2023-06-18T17:06:16.302Z,94761.81
2023-06-18T17:08:42.836Z,94773.03
2023-06-18T17:11:09.652Z,94740.88
2023-06-18T17:13:37.641Z,94767.78
2023-06-18T17:16:05.275Z,94768.47
2023-06-18T17:18:32.386Z,94755.34
2023-06-18T17:21:03.045Z,94772.88
2023-06-18T17:23:29.974Z,94743.81
2023-06-18T17:25:56.477Z,94732.88
2023-06-18T17:28:24.074Z,94739.53
2023-06-18T17:30:50.669Z,94778.41
2023-06-18T17:33:17.514Z,94760.59
2023-06-18T17:35:44.102Z,94763.19
2023-06-18T17:38:11.935Z,94782.84
2023-06-18T17:40:38.529Z,94732.81
2023-06-18T17:43:09.783Z,94758.28
2023-06-18T17:45:42.977Z,94782.97
2023-06-18T17:48:09.591Z,94757.25
2023-06-18T17:50:37.257Z,94747.00
2023-06-18T17:53:03.841Z,94782.88
2023-06-18T17:55:32.379Z,94793.06
2023-06-18T17:58:01.740Z,94801.16
2023-06-18T18:00:28.453Z,94784.25
2023-06-18T18:02:55.130Z,94798.34
2023-06-18T18:05:21.892Z,94792.53
2023-06-18T18:07:48.797Z,94790.25
2023-06-18T18:10:15.976Z,94790.81
2023-06-18T18:12:42.508Z,94781.59
2023-06-18T18:15:09.560Z,94796.94
2023-06-18T18:17:36.306Z,94798.19
2023-06-18T18:20:02.942Z,94787.59
2023-06-18T18:22:29.471Z,94795.59
2023-06-18T18:25:03.696Z,94787.97
2023-06-18T18:27:30.344Z,94794.34
2023-06-18T18:29:57.087Z,94800.84
2023-06-18T18:32:26.207Z,94788.66
2023-06-18T18:34:52.725Z,94794.56
2023-06-18T18:37:25.834Z,94806.59
2023-06-18T18:39:52.446Z,94779.84
2023-06-18T18:42:19.149Z,94786.88
2023-06-18T18:44:48.633Z,94795.94
2023-06-18T18:47:15.164Z,94786.94
2023-06-18T18:49:41.851Z,94802.38
2023-06-18T18:52:08.677Z,94805.72
2023-06-18T18:54:35.315Z,94823.72
2023-06-18T18:57:01.916Z,94820.31
2023-06-18T18:59:28.381Z,94823.91
2023-06-18T19:01:54.877Z,94811.19
2023-06-18T19:04:21.830Z,94822.16
2023-06-18T19:06:49.078Z,94823.94
2023-06-18T19:09:16.058Z,94824.34
2023-06-18T19:11:42.620Z,94821.25
2023-06-18T19:14:09.210Z,94822.47
2023-06-18T19:16:36.123Z,94829.56
2023-06-18T19:19:03.701Z,94833.03
2023-06-18T19:21:30.507Z,94832.59
2023-06-18T19:23:57.159Z,94843.16
2023-06-18T19:26:23.753Z,94841.44
2023-06-18T19:28:50.296Z,94827.38
2023-06-18T19:31:16.841Z,94833.78
2023-06-18T19:33:43.382Z,94851.28
2023-06-18T19:36:10.383Z,94851.25
2023-06-18T19:38:37.052Z,94858.16
2023-06-18T19:41:05.417Z,94846.09
2023-06-18T19:43:32.338Z,94862.06
2023-06-18T19:45:58.888Z,94862.78
2023-06-18T19:48:25.486Z,94857.56
2023-06-18T19:50:52.030Z,94859.28
2023-06-18T19:53:18.915Z,94861.16
2023-06-18T19:55:45.486Z,94869.19
2023-06-18T19:58:12.156Z,94870.16
2023-06-18T20:00:39.476Z,94869.78
2023-06-18T20:03:07.108Z,94878.84
2023-06-18T20:05:34.140Z,94887.41
2023-06-18T20:08:01.892Z,94889.44
2023-06-18T20:10:28.615Z,94893.53
2023-06-18T20:12:55.097Z,94884.44
2023-06-18T20:15:21.685Z,94889.63
2023-06-18T20:17:48.757Z,94885.34
2023-06-18T20:20:18.647Z,94898.47
2023-06-18T20:22:45.498Z,94891.22
2023-06-18T20:25:12.099Z,94906.56
2023-06-18T20:27:38.784Z,94905.31
2023-06-18T20:30:07.333Z,94911.16
2023-06-18T20:32:34.047Z,94905.28
2023-06-18T20:35:01.846Z,94905.50
2023-06-18T20:37:28.550Z,94905.16
2023-06-18T20:39:55.171Z,94905.84
2023-06-18T20:42:24.246Z,94908.88
2023-06-18T20:44:52.168Z,94907.41
2023-06-18T20:47:19.568Z,94908.25
2023-06-18T20:49:46.621Z,94907.97
2023-06-18T20:52:14.235Z,94918.19
2023-06-18T20:54:42.107Z,94911.59
2023-06-18T20:57:09.775Z,94921.09
2023-06-18T20:59:36.433Z,94914.66
2023-06-18T21:02:03.211Z,94914.94
2023-06-18T21:04:29.920Z,94913.06
2023-06-18T21:06:56.369Z,94909.38
2023-06-18T21:09:22.968Z,94913.88
2023-06-18T21:11:49.427Z,94911.34
2023-06-18T21:14:16.203Z,94914.06
2023-06-18T21:16:42.829Z,94908.22
2023-06-18T21:19:09.323Z,94914.50
2023-06-18T21:21:35.905Z,94912.06
2023-06-18T21:24:02.779Z,94905.28
2023-06-18T21:26:29.584Z,94907.19
2023-06-18T21:28:56.352Z,94909.25
2023-06-18T21:31:22.906Z,94912.13
2023-06-18T21:33:49.673Z,94906.63
2023-06-18T21:36:16.766Z,94919.69
2023-06-18T21:38:43.359Z,94910.53
2023-06-18T21:41:10.068Z,94913.72
2023-06-18T21:43:36.737Z,94924.75
2023-06-18T21:46:03.621Z,94917.88
2023-06-18T21:48:30.552Z,94927.94
2023-06-18T21:50:59.831Z,94926.72
2023-06-18T21:53:26.382Z,94919.28
2023-06-18T21:55:53.520Z,94928.44
2023-06-18T21:58:22.247Z,94919.13
2023-06-18T22:00:49.708Z,94926.66
2023-06-18T22:03:16.607Z,94926.00
2023-06-18T22:05:43.480Z,94931.03
2023-06-18T22:08:23.689Z,94940.78
2023-06-18T22:10:51.360Z,94938.59
2023-06-18T22:13:18.155Z,94946.38
2023-06-18T22:15:44.838Z,94935.28
2023-06-18T22:18:11.754Z,94928.78
2023-06-18T22:20:38.739Z,94948.19
2023-06-18T22:23:05.581Z,94950.56
2023-06-18T22:25:32.944Z,94957.59
2023-06-18T22:27:59.743Z,94947.41
2023-06-18T22:30:26.432Z,94940.94
2023-06-18T22:32:53.325Z,94962.50
2023-06-18T22:35:19.997Z,94953.47
2023-06-18T22:37:46.475Z,94951.88
2023-06-18T22:40:13.591Z,94961.16
2023-06-18T22:42:40.116Z,94957.50
2023-06-18T22:45:07.375Z,94949.59
2023-06-18T22:47:34.080Z,94949.50
2023-06-18T22:50:00.685Z,94947.59
2023-06-18T22:52:27.257Z,94951.00
2023-06-18T22:54:53.864Z,94943.91
2023-06-18T22:57:20.604Z,94947.16
2023-06-18T22:59:47.154Z,94936.25
2023-06-18T23:02:13.742Z,94942.63
2023-06-18T23:04:40.471Z,94944.81
2023-06-18T23:07:07.017Z,94931.56
2023-06-18T23:09:33.980Z,94940.56
2023-06-18T23:12:01.629Z,94945.22
2023-06-18T23:14:28.116Z,94951.63
2023-06-18T23:16:54.850Z,94948.47
2023-06-18T23:19:21.643Z,94949.41
2023-06-18T23:21:48.612Z,94958.63
2023-06-18T23:24:15.852Z,94963.59
2023-06-18T23:26:42.485Z,94969.63
2023-06-18T23:29:13.035Z,94964.13
2023-06-18T23:31:40.429Z,94972.69
2023-06-18T23:34:10.331Z,94974.31
2023-06-18T23:36:37.087Z,94976.59
2023-06-18T23:39:05.061Z,94989.09
2023-06-18T23:41:31.696Z,94994.16
2023-06-18T23:43:58.511Z,94986.53
2023-06-18T23:46:25.267Z,94993.81
2023-06-18T23:48:51.933Z,95001.03
2023-06-18T23:51:18.457Z,94993.09
2023-06-18T23:53:44.995Z,94993.97
2023-06-18T23:56:11.593Z,94998.09
2023-06-18T23:58:38.382Z,94990.06
